createdAt,value
2022-10-13T00:01:09.079Z,101523.38
2022-10-13T00:03:38.076Z,101526.03
2022-10-13T00:06:08.426Z,101528.69
2022-10-13T00:08:38.216Z,101523.38
2022-10-13T00:11:12.071Z,101515.41
2022-10-13T00:13:40.397Z,101515.44
2022-10-13T00:16:10.110Z,101513.69
2022-10-13T00:18:38.398Z,101515.44
2022-10-13T00:21:09.247Z,101503.13
2022-10-13T00:23:39.282Z,101504.81
2022-10-13T00:26:09.690Z,101510.97
2022-10-13T00:28:38.110Z,101509.19
2022-10-13T00:31:15.210Z,101506.53
2022-10-13T00:33:43.165Z,101511.75
2022-10-13T00:36:11.252Z,101508.19
2022-10-13T00:38:41.603Z,101508.19
2022-10-13T00:41:09.624Z,101505.47
2022-10-13T00:44:00.194Z,101498.31
2022-10-13T00:46:29.898Z,101494.81
2022-10-13T00:49:01.941Z,101500.97
2022-10-13T00:51:35.373Z,101500.22
2022-10-13T00:54:06.931Z,101498.44
2022-10-13T00:56:37.983Z,101496.66
2022-10-13T00:59:10.335Z,101498.41
2022-10-13T01:01:40.454Z,101498.41
2022-10-13T01:04:08.439Z,101495.72
2022-10-13T01:06:36.331Z,101503.66
2022-10-13T01:09:05.698Z,101499.19
2022-10-13T01:11:49.568Z,101492.97
2022-10-13T01:14:25.002Z,101499.22
2022-10-13T01:17:03.218Z,101499.16
2022-10-13T01:19:55.333Z,101496.50
2022-10-13T01:22:40.572Z,101493.81
2022-10-13T01:25:28.593Z,101492.94
2022-10-13T01:28:24.572Z,101493.78
2022-10-13T01:31:03.244Z,101488.50
2022-10-13T01:33:40.521Z,101487.66
2022-10-13T01:36:18.896Z,101483.28
2022-10-13T01:38:54.082Z,101488.59
2022-10-13T01:41:29.690Z,101493.94
2022-10-13T01:44:05.150Z,101484.25
2022-10-13T01:46:38.038Z,101475.47
2022-10-13T01:49:09.883Z,101476.31
2022-10-13T01:51:39.890Z,101475.47
2022-10-13T01:54:08.375Z,101464.00
2022-10-13T01:56:36.256Z,101460.44
2022-10-13T01:59:09.844Z,101469.28
2022-10-13T02:01:52.197Z,101463.09
2022-10-13T02:04:32.255Z,101456.94
2022-10-13T02:07:08.927Z,101455.22
2022-10-13T02:09:45.497Z,101457.88
2022-10-13T02:12:20.241Z,101457.06
2022-10-13T02:14:50.704Z,101450.00
2022-10-13T02:17:21.285Z,101442.94
2022-10-13T02:19:49.250Z,101450.00
2022-10-13T02:22:18.839Z,101440.28
2022-10-13T02:24:46.908Z,101436.72
2022-10-13T02:27:15.173Z,101431.38
2022-10-13T02:29:54.328Z,101435.75
2022-10-13T02:32:24.140Z,101440.19
2022-10-13T02:34:54.257Z,101441.06
2022-10-13T02:37:22.176Z,101446.34
2022-10-13T02:39:50.097Z,101439.31
2022-10-13T02:42:18.566Z,101437.53
2022-10-13T02:44:47.073Z,101438.47
2022-10-13T02:47:14.982Z,101439.31
2022-10-13T02:49:44.193Z,101444.66
2022-10-13T02:52:12.117Z,101437.66
2022-10-13T02:54:43.079Z,101439.44
2022-10-13T02:57:10.899Z,101442.13
2022-10-13T02:59:38.738Z,101440.38
2022-10-13T03:02:06.624Z,101435.09
2022-10-13T03:04:36.154Z,101426.25
2022-10-13T03:07:05.763Z,101432.47
2022-10-13T03:09:33.689Z,101424.59
2022-10-13T03:12:01.677Z,101424.53
2022-10-13T03:14:30.878Z,101422.81
2022-10-13T03:16:58.811Z,101422.81
2022-10-13T03:19:26.794Z,101418.41
2022-10-13T03:21:55.283Z,101420.16
2022-10-13T03:24:24.557Z,101417.44
2022-10-13T03:26:52.486Z,101413.03
2022-10-13T03:29:21.153Z,101419.13
2022-10-13T03:31:49.088Z,101423.47
2022-10-13T03:34:17.795Z,101416.44
2022-10-13T03:36:45.718Z,101415.50
2022-10-13T03:39:13.806Z,101423.38
2022-10-13T03:41:43.423Z,101426.88
2022-10-13T03:44:13.572Z,101425.06
2022-10-13T03:46:41.675Z,101422.41
2022-10-13T03:49:11.224Z,101417.09
2022-10-13T03:51:39.419Z,101427.66
2022-10-13T03:54:08.777Z,101421.50
2022-10-13T03:56:38.429Z,101417.00
2022-10-13T03:59:08.468Z,101423.22
2022-10-13T04:01:36.656Z,101422.31
2022-10-13T04:04:04.705Z,101423.22
2022-10-13T04:06:32.950Z,101422.28
2022-10-13T04:09:00.880Z,101417.81
2022-10-13T04:11:28.781Z,101420.47
2022-10-13T04:13:57.320Z,101417.81
2022-10-13T04:16:28.268Z,101419.56
2022-10-13T04:19:00.303Z,101426.63
2022-10-13T04:21:29.217Z,101416.06
2022-10-13T04:23:58.312Z,101419.44
2022-10-13T04:26:28.639Z,101422.09
2022-10-13T04:28:57.329Z,101418.53
2022-10-13T04:31:28.869Z,101415.97
2022-10-13T04:33:57.103Z,101411.56
2022-10-13T04:36:25.231Z,101408.91
2022-10-13T04:38:54.149Z,101402.72
2022-10-13T04:41:22.873Z,101403.63
2022-10-13T04:43:51.526Z,101401.00
2022-10-13T04:46:21.035Z,101397.44
2022-10-13T04:48:51.391Z,101395.72
2022-10-13T04:51:22.989Z,101392.16
2022-10-13T04:53:55.831Z,101392.13
2022-10-13T04:56:23.707Z,101397.47
2022-10-13T04:58:51.919Z,101399.28
2022-10-13T05:01:22.768Z,101396.63
2022-10-13T05:03:54.244Z,101392.22
2022-10-13T05:06:24.581Z,101394.88
2022-10-13T05:08:57.038Z,101387.78
2022-10-13T05:11:25.524Z,101386.88
2022-10-13T05:13:53.912Z,101378.91
2022-10-13T05:16:22.870Z,101367.41
2022-10-13T05:18:52.004Z,101381.53
2022-10-13T05:21:23.983Z,101380.59
2022-10-13T05:23:54.285Z,101383.25
2022-10-13T05:26:23.789Z,101376.19
2022-10-13T05:28:51.931Z,101377.94
2022-10-13T05:31:21.890Z,101377.00
2022-10-13T05:33:51.773Z,101372.56
2022-10-13T05:36:26.495Z,101379.59
2022-10-13T05:38:56.043Z,101375.16
2022-10-13T05:41:25.462Z,101382.22
2022-10-13T05:43:57.400Z,101374.22
2022-10-13T05:46:25.849Z,101370.72
2022-10-13T05:48:54.161Z,101377.75
2022-10-13T05:51:27.059Z,101370.69
2022-10-13T05:54:02.951Z,101368.88
2022-10-13T05:56:33.930Z,101366.16
2022-10-13T05:59:05.896Z,101360.81
2022-10-13T06:01:37.817Z,101351.94
2022-10-13T06:04:10.881Z,101344.78
2022-10-13T06:06:40.852Z,101346.56
2022-10-13T06:09:09.068Z,101350.06
2022-10-13T06:11:37.036Z,101356.19
2022-10-13T06:14:05.140Z,101354.31
2022-10-13T06:16:33.333Z,101355.22
2022-10-13T06:19:01.527Z,101346.28
2022-10-13T06:21:29.548Z,101349.78
2022-10-13T06:23:58.912Z,101348.78
2022-10-13T06:26:26.919Z,101338.00
2022-10-13T06:28:59.339Z,101350.44
2022-10-13T06:31:28.876Z,101338.94
2022-10-13T06:33:56.917Z,101330.91
2022-10-13T06:36:24.883Z,101320.25
2022-10-13T06:38:52.987Z,101328.22
2022-10-13T06:41:23.718Z,101340.56
2022-10-13T06:43:51.690Z,101337.00
2022-10-13T06:46:19.553Z,101333.34
2022-10-13T06:48:50.521Z,101350.97
2022-10-13T06:51:18.733Z,101346.53
2022-10-13T06:53:47.275Z,101342.06
2022-10-13T06:56:15.611Z,101342.88
2022-10-13T06:58:44.910Z,101347.09
2022-10-13T07:01:15.018Z,101346.16
2022-10-13T07:03:43.537Z,101337.19
2022-10-13T07:06:11.797Z,101337.16
2022-10-13T07:08:39.889Z,101328.09
2022-10-13T07:11:14.521Z,101335.94
2022-10-13T07:13:47.035Z,101337.53
2022-10-13T07:16:17.042Z,101341.94
2022-10-13T07:18:45.362Z,101342.03
2022-10-13T07:21:13.268Z,101345.50
2022-10-13T07:23:41.547Z,101347.25
2022-10-13T07:26:10.077Z,101340.91
2022-10-13T07:28:38.066Z,101327.34
2022-10-13T07:31:11.892Z,101334.16
2022-10-13T07:33:40.174Z,101335.72
2022-10-13T07:36:08.960Z,101334.03
2022-10-13T07:38:37.214Z,101327.41
2022-10-13T07:41:07.111Z,101332.56
2022-10-13T07:43:35.540Z,101330.38
2022-10-13T07:46:07.071Z,101326.66
2022-10-13T07:48:37.050Z,101324.56
2022-10-13T07:51:07.303Z,101327.03
2022-10-13T07:53:36.227Z,101323.91
2022-10-13T07:56:05.915Z,101325.50
2022-10-13T07:58:33.942Z,101327.28
2022-10-13T08:01:02.945Z,101316.81
2022-10-13T08:03:32.731Z,101313.97
2022-10-13T08:06:03.253Z,101307.44
2022-10-13T08:08:31.831Z,101310.00
2022-10-13T08:11:03.021Z,101315.34
2022-10-13T08:13:33.717Z,101300.44
2022-10-13T08:16:11.411Z,101294.22
2022-10-13T08:18:39.381Z,101294.94
2022-10-13T08:24:02.782Z,101300.03
2022-10-13T08:26:30.904Z,101289.81
2022-10-13T08:31:47.113Z,101291.50
2022-10-13T08:34:15.105Z,101291.78
2022-10-13T08:36:44.340Z,101288.16
2022-10-13T08:39:13.952Z,101285.72
2022-10-13T08:41:44.856Z,101277.38
2022-10-13T08:47:16.333Z,101280.16
2022-10-13T08:49:46.279Z,101287.31
2022-10-13T08:52:20.863Z,101286.75
2022-10-13T08:54:49.885Z,101288.50
2022-10-13T08:57:19.540Z,101286.84
2022-10-13T08:59:48.068Z,101296.81
2022-10-13T09:02:24.961Z,101303.16
2022-10-13T09:04:54.288Z,101304.19
2022-10-13T09:07:27.629Z,101297.13
2022-10-13T09:09:57.072Z,101286.31
2022-10-13T09:12:26.363Z,101293.41
2022-10-13T09:15:01.361Z,101291.78
2022-10-13T09:17:30.612Z,101300.41
2022-10-13T09:20:05.559Z,101301.31
2022-10-13T09:22:36.476Z,101308.03
2022-10-13T09:25:19.210Z,101305.13
2022-10-13T09:27:51.722Z,101306.88
2022-10-13T09:30:27.689Z,101302.13
2022-10-13T09:33:15.069Z,101300.28
2022-10-13T09:35:45.439Z,101301.41
2022-10-13T09:38:19.916Z,101294.22
2022-10-13T09:40:59.657Z,101293.91
2022-10-13T09:43:33.679Z,101293.00
2022-10-13T09:46:03.524Z,101287.16
2022-10-13T09:48:34.416Z,101283.75
2022-10-13T09:51:02.901Z,101285.53
2022-10-13T09:53:35.108Z,101295.25
2022-10-13T09:56:21.987Z,101298.63
2022-10-13T09:58:56.979Z,101299.47
2022-10-13T10:01:33.887Z,101281.41
2022-10-13T10:04:05.248Z,101293.31
2022-10-13T10:06:33.338Z,101287.72
2022-10-13T10:09:11.769Z,101286.75
2022-10-13T10:11:42.676Z,101283.31
2022-10-13T10:14:18.471Z,101274.97
2022-10-13T10:16:51.923Z,101278.38
2022-10-13T10:19:25.871Z,101269.22
2022-10-13T10:22:04.284Z,101263.34
2022-10-13T10:24:45.918Z,101253.28
2022-10-13T10:29:54.093Z,101265.03
2022-10-13T10:32:43.431Z,101261.47
2022-10-13T10:35:15.592Z,101264.59
2022-10-13T10:38:05.080Z,101262.56
2022-10-13T10:40:51.806Z,101260.75
2022-10-13T10:43:39.614Z,101257.28
2022-10-13T10:46:17.064Z,101252.34
2022-10-13T10:48:47.575Z,101253.28
2022-10-13T10:51:16.151Z,101255.47
2022-10-13T10:53:53.612Z,101245.41
2022-10-13T10:56:31.516Z,101239.94
2022-10-13T10:59:14.133Z,101227.19
2022-10-13T11:01:47.552Z,101217.44
2022-10-13T11:04:36.367Z,101221.50
2022-10-13T11:07:04.650Z,101216.84
2022-10-13T11:10:18.333Z,101209.88
2022-10-13T11:13:16.464Z,101201.94
2022-10-13T11:15:46.409Z,101207.97
2022-10-13T11:18:51.825Z,101194.84
2022-10-13T11:21:19.955Z,101203.81
2022-10-13T11:23:49.738Z,101192.78
2022-10-13T11:26:32.775Z,101189.00
2022-10-13T11:29:02.071Z,101186.63
2022-10-13T11:31:36.139Z,101183.75
2022-10-13T11:34:04.938Z,101186.44
2022-10-13T11:36:56.771Z,101185.38
2022-10-13T11:39:59.261Z,101173.53
2022-10-13T11:42:47.533Z,101175.06
2022-10-13T11:45:39.431Z,101178.53
2022-10-13T11:48:55.302Z,101170.31
2022-10-13T11:51:39.555Z,101169.66
2022-10-13T11:54:23.421Z,101167.75
2022-10-13T11:56:53.283Z,101158.78
2022-10-13T11:59:23.452Z,101160.19
2022-10-13T12:01:57.986Z,101148.84
2022-10-13T12:04:29.783Z,101147.84
2022-10-13T12:07:02.031Z,101144.94
2022-10-13T12:09:37.151Z,101151.78
2022-10-13T12:12:20.174Z,101138.28
2022-10-13T12:14:55.677Z,101137.69
2022-10-13T12:17:31.187Z,101137.25
2022-10-13T12:20:01.981Z,101143.09
2022-10-13T12:22:30.216Z,101130.91
2022-10-13T12:25:00.168Z,101137.97
2022-10-13T12:27:32.502Z,101136.31
2022-10-13T12:30:00.822Z,101136.97
2022-10-13T12:32:32.409Z,101135.75
2022-10-13T12:35:17.003Z,101135.44
2022-10-13T12:37:45.246Z,101132.47
2022-10-13T12:40:15.485Z,101126.63
2022-10-13T12:42:44.859Z,101116.59
2022-10-13T12:45:18.261Z,101123.50
2022-10-13T12:47:52.536Z,101121.41
2022-10-13T12:50:38.833Z,101121.97
2022-10-13T12:53:13.574Z,101119.28
2022-10-13T12:55:50.733Z,101112.53
2022-10-13T12:58:23.805Z,101117.13
2022-10-13T13:01:05.248Z,101110.63
2022-10-13T13:03:37.185Z,101115.66
2022-10-13T13:06:26.511Z,101113.72
2022-10-13T13:09:21.843Z,101108.09
2022-10-13T13:11:50.562Z,101115.22
2022-10-13T13:14:45.743Z,101115.06
2022-10-13T13:17:17.520Z,101106.09
2022-10-13T13:19:58.263Z,101110.56
2022-10-13T13:22:26.932Z,101111.03
2022-10-13T13:24:55.218Z,101114.31
2022-10-13T13:27:27.306Z,101102.59
2022-10-13T13:29:56.402Z,101100.72
2022-10-13T13:32:28.089Z,101109.28
2022-10-13T13:34:57.518Z,101106.41
2022-10-13T13:37:30.974Z,101098.50
2022-10-13T13:39:59.008Z,101100.28
2022-10-13T13:42:28.891Z,101102.72
2022-10-13T13:44:57.490Z,101102.00
2022-10-13T13:47:27.148Z,101103.81
2022-10-13T13:49:56.216Z,101091.81
2022-10-13T13:52:26.428Z,101096.28
2022-10-13T13:54:56.191Z,101099.41
2022-10-13T13:57:24.277Z,101093.91
2022-10-13T13:59:54.866Z,101097.22
2022-10-13T14:02:23.333Z,101107.78
2022-10-13T14:04:51.468Z,101093.56
2022-10-13T14:07:20.830Z,101100.25
2022-10-13T14:09:51.966Z,101090.00
2022-10-13T14:12:20.131Z,101092.19
2022-10-13T14:14:48.951Z,101088.56
2022-10-13T14:17:19.384Z,101087.63
2022-10-13T14:19:47.401Z,101087.59
2022-10-13T14:22:15.412Z,101083.00
2022-10-13T14:24:43.728Z,101087.78
2022-10-13T14:27:13.494Z,101080.81
2022-10-13T14:29:41.634Z,101075.66
2022-10-13T14:32:09.601Z,101074.66
2022-10-13T14:34:37.563Z,101076.81
2022-10-13T14:37:05.461Z,101065.47
2022-10-13T14:39:33.424Z,101065.94
2022-10-13T14:42:01.473Z,101060.97
2022-10-13T14:44:30.808Z,101057.66
2022-10-13T14:46:58.811Z,101056.50
2022-10-13T14:49:26.969Z,101059.25
2022-10-13T14:51:55.011Z,101059.72
2022-10-13T14:54:23.001Z,101059.78
2022-10-13T14:56:51.005Z,101061.56
2022-10-13T14:59:19.110Z,101062.72
2022-10-13T15:01:50.569Z,101065.63
2022-10-13T15:04:18.733Z,101062.31
2022-10-13T15:06:46.693Z,101065.03
2022-10-13T15:09:14.688Z,101062.66
2022-10-13T15:11:42.726Z,101062.88
2022-10-13T15:14:10.917Z,101058.72
2022-10-13T15:16:38.852Z,101066.91
2022-10-13T15:19:08.240Z,101053.66
2022-10-13T15:21:36.157Z,101057.13
2022-10-13T15:24:04.633Z,101062.06
2022-10-13T15:26:33.739Z,101054.00
2022-10-13T15:29:01.828Z,101055.25
2022-10-13T15:31:31.157Z,101056.03
2022-10-13T15:33:59.171Z,101049.06
2022-10-13T15:36:28.533Z,101055.81
2022-10-13T15:38:56.497Z,101052.78
2022-10-13T15:41:25.525Z,101045.50
2022-10-13T15:43:53.842Z,101048.03
2022-10-13T15:46:26.257Z,101047.06
2022-10-13T15:48:55.562Z,101047.66
2022-10-13T15:51:27.080Z,101051.63
2022-10-13T15:53:56.689Z,101046.66
2022-10-13T15:56:24.605Z,101052.16
2022-10-13T15:58:52.669Z,101059.50
2022-10-13T16:01:20.829Z,101054.66
2022-10-13T16:03:49.046Z,101056.69
2022-10-13T16:06:17.083Z,101058.91
2022-10-13T16:08:45.108Z,101047.50
2022-10-13T16:11:17.769Z,101053.28
2022-10-13T16:13:47.779Z,101056.19
2022-10-13T16:16:16.370Z,101056.44
2022-10-13T16:18:45.074Z,101050.97
2022-10-13T16:21:18.471Z,101052.84
2022-10-13T16:23:47.231Z,101052.91
2022-10-13T16:26:18.510Z,101054.81
2022-10-13T16:28:47.215Z,101049.69
2022-10-13T16:31:17.618Z,101052.44
2022-10-13T16:33:46.565Z,101052.72
2022-10-13T16:36:16.019Z,101059.97
2022-10-13T16:38:44.080Z,101055.06
2022-10-13T16:41:15.029Z,101058.13
2022-10-13T16:43:45.065Z,101058.78
2022-10-13T16:46:14.915Z,101060.94
2022-10-13T16:48:44.636Z,101048.75
2022-10-13T16:51:15.069Z,101049.72
2022-10-13T16:53:43.620Z,101047.13
2022-10-13T16:56:11.745Z,101054.28
2022-10-13T16:58:44.923Z,101049.03
2022-10-13T17:01:14.703Z,101052.66
2022-10-13T17:03:45.069Z,101056.50
2022-10-13T17:06:14.265Z,101059.38
2022-10-13T17:08:43.495Z,101056.84
2022-10-13T17:11:16.952Z,101060.69
2022-10-13T17:13:45.270Z,101060.78
2022-10-13T17:16:15.037Z,101052.91
2022-10-13T17:18:45.778Z,101060.09
2022-10-13T17:21:15.627Z,101052.19
2022-10-13T17:23:48.384Z,101056.66
2022-10-13T17:26:18.293Z,101056.88
2022-10-13T17:28:47.178Z,101064.41
2022-10-13T17:31:19.362Z,101050.34
2022-10-13T17:33:49.385Z,101051.31
2022-10-13T17:36:19.325Z,101057.72
2022-10-13T17:38:49.443Z,101059.53
2022-10-13T17:41:18.552Z,101059.50
2022-10-13T17:43:50.785Z,101067.59
2022-10-13T17:46:38.949Z,101068.56
2022-10-13T17:49:08.362Z,101069.19
2022-10-13T17:51:36.628Z,101069.94
2022-10-13T17:54:20.552Z,101065.31
2022-10-13T17:56:50.679Z,101074.75
2022-10-13T17:59:20.039Z,101071.91
2022-10-13T18:01:49.787Z,101065.72
2022-10-13T18:04:19.910Z,101065.78
2022-10-13T18:06:48.800Z,101064.88
2022-10-13T18:09:19.342Z,101064.44
2022-10-13T18:11:51.153Z,101061.91
2022-10-13T18:14:20.185Z,101060.69
2022-10-13T18:16:51.627Z,101068.09
2022-10-13T18:19:20.677Z,101078.88
2022-10-13T18:21:48.795Z,101071.91
2022-10-13T18:24:16.790Z,101074.47
2022-10-13T18:26:46.920Z,101077.44
2022-10-13T18:29:15.569Z,101078.22
2022-10-13T18:31:43.693Z,101081.06
2022-10-13T18:34:15.600Z,101075.69
2022-10-13T18:36:47.229Z,101072.88
2022-10-13T18:39:32.846Z,101082.47
2022-10-13T18:42:00.963Z,101078.84
2022-10-13T18:44:35.367Z,101083.25
2022-10-13T18:47:03.400Z,101079.00
2022-10-13T18:49:35.016Z,101075.50
2022-10-13T18:52:03.560Z,101073.78
2022-10-13T18:54:31.931Z,101078.13
2022-10-13T18:57:00.039Z,101071.13
2022-10-13T18:59:27.979Z,101072.22
2022-10-13T19:01:55.955Z,101078.94
2022-10-13T19:04:26.151Z,101074.53
2022-10-13T19:06:56.731Z,101070.69
2022-10-13T19:12:18.617Z,101076.34
2022-10-13T19:14:46.587Z,101083.25
2022-10-13T19:17:14.591Z,101076.94
2022-10-13T19:19:42.939Z,101079.66
2022-10-13T19:22:15.139Z,101074.22
2022-10-13T19:24:43.173Z,101079.44
2022-10-13T19:27:12.010Z,101081.38
2022-10-13T19:29:40.536Z,101082.28
2022-10-13T19:32:08.415Z,101085.22
2022-10-13T19:34:36.415Z,101088.06
2022-10-13T19:37:07.315Z,101080.09
2022-10-13T19:39:37.077Z,101072.78
2022-10-13T19:42:05.400Z,101085.25
2022-10-13T19:44:33.378Z,101085.38
2022-10-13T19:47:01.405Z,101083.44
2022-10-13T19:49:29.428Z,101083.44
2022-10-13T19:51:57.502Z,101087.16
2022-10-13T19:54:28.979Z,101087.16
2022-10-13T19:57:01.292Z,101091.53
2022-10-13T19:59:29.396Z,101076.72
2022-10-13T20:01:58.866Z,101091.59
2022-10-13T20:04:26.811Z,101089.13
2022-10-13T20:06:54.729Z,101080.41
2022-10-13T20:09:22.778Z,101082.34
2022-10-13T20:11:52.786Z,101081.38
2022-10-13T20:14:22.506Z,101078.88
2022-10-13T20:16:50.516Z,101078.78
2022-10-13T20:19:19.633Z,101079.56
2022-10-13T20:21:51.689Z,101088.41
2022-10-13T20:24:20.561Z,101087.59
2022-10-13T20:26:48.681Z,101094.69
2022-10-13T20:29:19.055Z,101095.44
2022-10-13T20:31:48.486Z,101094.69
2022-10-13T20:34:16.454Z,101093.03
2022-10-13T20:36:45.604Z,101081.63
2022-10-13T20:39:13.662Z,101095.72
2022-10-13T20:41:41.583Z,101087.94
2022-10-13T20:44:11.237Z,101085.34
2022-10-13T20:46:40.031Z,101085.50
2022-10-13T20:49:11.353Z,101080.16
2022-10-13T20:51:40.802Z,101084.72
2022-10-13T20:54:08.887Z,101072.09
2022-10-13T20:56:36.961Z,101076.53
2022-10-13T20:59:07.022Z,101077.25
2022-10-13T21:01:35.662Z,101072.94
2022-10-13T21:04:03.884Z,101066.66
2022-10-13T21:06:33.245Z,101072.94
2022-10-13T21:09:01.836Z,101075.00
2022-10-13T21:11:29.845Z,101072.34
2022-10-13T21:13:58.202Z,101075.09
2022-10-13T21:16:29.332Z,101076.00
2022-10-13T21:18:59.030Z,101080.50
2022-10-13T21:21:28.632Z,101075.22
2022-10-13T21:23:59.878Z,101079.53
2022-10-13T21:26:30.021Z,101072.34
2022-10-13T21:28:58.557Z,101074.09
2022-10-13T21:31:27.457Z,101069.69
2022-10-13T21:33:55.980Z,101071.56
2022-10-13T21:36:26.031Z,101069.94
2022-10-13T21:38:58.376Z,101068.22
2022-10-13T21:41:27.171Z,101069.09
2022-10-13T21:43:55.829Z,101064.53
2022-10-13T21:46:25.961Z,101068.91
2022-10-13T21:48:55.680Z,101068.91
2022-10-13T21:51:25.886Z,101068.00
2022-10-13T21:53:55.763Z,101071.44
2022-10-13T21:56:26.863Z,101072.34
2022-10-13T21:58:56.080Z,101074.19
2022-10-13T22:01:24.666Z,101071.56
2022-10-13T22:03:56.253Z,101067.03
2022-10-13T22:06:28.064Z,101071.44
2022-10-13T22:08:58.438Z,101072.34
2022-10-13T22:11:29.936Z,101069.59
2022-10-13T22:13:58.409Z,101068.63
2022-10-13T22:16:28.938Z,101067.00
2022-10-13T22:18:58.847Z,101069.66
2022-10-13T22:21:29.083Z,101061.50
2022-10-13T22:23:58.280Z,101055.50
2022-10-13T22:26:29.733Z,101058.34
2022-10-13T22:28:58.926Z,101056.53
2022-10-13T22:31:27.859Z,101051.13
2022-10-13T22:33:56.386Z,101051.19
2022-10-13T22:36:26.621Z,101051.88
2022-10-13T22:38:57.134Z,101051.03
2022-10-13T22:41:25.526Z,101056.47
2022-10-13T22:43:56.303Z,101060.28
2022-10-13T22:46:26.163Z,101058.88
2022-10-13T22:48:54.088Z,101052.50
2022-10-13T22:51:23.867Z,101054.28
2022-10-13T22:53:52.644Z,101062.03
2022-10-13T22:56:22.869Z,101048.09
2022-10-13T22:58:51.709Z,101044.63
2022-10-13T23:01:22.031Z,101046.44
2022-10-13T23:03:51.122Z,101049.97
2022-10-13T23:06:20.975Z,101048.94
2022-10-13T23:08:49.564Z,101050.63
2022-10-13T23:11:18.140Z,101044.50
2022-10-13T23:13:46.150Z,101047.06
2022-10-13T23:16:16.704Z,101049.63
2022-10-13T23:18:46.352Z,101043.38
2022-10-13T23:21:26.010Z,101041.56
2022-10-13T23:23:58.602Z,101041.16
2022-10-13T23:26:27.481Z,101041.09
2022-10-13T23:28:57.973Z,101046.09
2022-10-13T23:31:27.492Z,101041.59
2022-10-13T23:33:58.644Z,101039.91
2022-10-13T23:36:29.099Z,101037.31
2022-10-13T23:38:59.119Z,101035.50
2022-10-13T23:41:27.735Z,101035.47
2022-10-13T23:43:55.858Z,101031.97
2022-10-13T23:46:23.950Z,101027.41
2022-10-13T23:48:52.604Z,101030.03
2022-10-13T23:51:23.473Z,101031.06
2022-10-13T23:53:52.226Z,101029.13
2022-10-13T23:56:20.246Z,101028.31
2022-10-13T23:58:48.344Z,101023.06
